sensor_id;sensor_type;location;lat;lon;timestamp;temperature;humidity
7598;DHT22;3840;59.32098800;18.06423600;2023-07-20T00:00:26;14.00;99.90
7598;DHT22;3840;59.32098800;18.06423600;2023-07-20T00:02:52;14.00;99.90
7598;DHT22;3840;59.32098800;18.06423600;2023-07-20T00:05:18;13.90;99.90
7598;DHT22;3840;59.32098800;18.06423600;2023-07-20T00:07:44;13.90;99.90
7598;DHT22;3840;59.32098800;18.06423600;2023-07-20T00:10:09;13.80;99.90
7598;DHT22;3840;59.32098800;18.06423600;2023-07-20T00:12:35;13.80;99.90
7598;DHT22;3840;59.32098800;18.06423600;2023-07-20T00:15:01;13.70;99.90
7598;DHT22;3840;59.32098800;18.06423600;2023-07-20T00:17:27;13.60;99.90
7598;DHT22;3840;59.32098800;18.06423600;2023-07-20T00:19:52;13.70;99.90
7598;DHT22;3840;59.32098800;18.06423600;2023-07-20T00:22:18;13.60;99.90
7598;DHT22;3840;59.32098800;18.06423600;2023-07-20T00:24:44;13.60;99.90
7598;DHT22;3840;59.32098800;18.06423600;2023-07-20T00:27:09;13.60;99.90
7598;DHT22;3840;59.32098800;18.06423600;2023-07-20T00:29:35;13.60;99.90
7598;DHT22;3840;59.32098800;18.06423600;2023-07-20T00:32:01;13.60;99.90
7598;DHT22;3840;59.32098800;18.06423600;2023-07-20T00:34:26;13.50;99.90
7598;DHT22;3840;59.32098800;18.06423600;2023-07-20T00:36:52;13.50;99.90
7598;DHT22;3840;59.32098800;18.06423600;2023-07-20T00:39:18;13.50;99.90
7598;DHT22;3840;59.32098800;18.06423600;2023-07-20T00:41:43;13.40;99.90
7598;DHT22;3840;59.32098800;18.06423600;2023-07-20T00:44:09;13.40;99.90
7598;DHT22;3840;59.32098800;18.06423600;2023-07-20T00:46:35;13.40;99.90
7598;DHT22;3840;59.32098800;18.06423600;2023-07-20T00:49:01;13.30;99.90
7598;DHT22;3840;59.32098800;18.06423600;2023-07-20T00:51:27;13.30;99.90
7598;DHT22;3840;59.32098800;18.06423600;2023-07-20T00:53:53;13.30;99.90
7598;DHT22;3840;59.32098800;18.06423600;2023-07-20T00:56:19;13.30;99.90
7598;DHT22;3840;59.32098800;18.06423600;2023-07-20T00:58:45;13.30;99.90
7598;DHT22;3840;59.32098800;18.06423600;2023-07-20T01:01:11;13.30;99.90
7598;DHT22;3840;59.32098800;18.06423600;2023-07-20T01:03:37;13.20;99.90
7598;DHT22;3840;59.32098800;18.06423600;2023-07-20T01:06:10;13.30;99.90
7598;DHT22;3840;59.32098800;18.06423600;2023-07-20T01:08:43;13.20;99.90
7598;DHT22;3840;59.32098800;18.06423600;2023-07-20T01:11:38;13.20;99.90
7598;DHT22;3840;59.32098800;18.06423600;2023-07-20T01:14:05;13.20;99.90
7598;DHT22;3840;59.32098800;18.06423600;2023-07-20T01:16:31;13.20;99.90
7598;DHT22;3840;59.32098800;18.06423600;2023-07-20T01:18:57;13.20;99.90
7598;DHT22;3840;59.32098800;18.06423600;2023-07-20T01:21:45;13.20;99.90
7598;DHT22;3840;59.32098800;18.06423600;2023-07-20T01:24:38;13.20;99.90
7598;DHT22;3840;59.32098800;18.06423600;2023-07-20T01:33:08;13.20;99.90
7598;DHT22;3840;59.32098800;18.06423600;2023-07-20T01:35:35;13.20;99.90
7598;DHT22;3840;59.32098800;18.06423600;2023-07-20T01:38:02;13.20;99.90
7598;DHT22;3840;59.32098800;18.06423600;2023-07-20T01:40:29;13.20;99.90
7598;DHT22;3840;59.32098800;18.06423600;2023-07-20T01:42:55;13.20;99.90
7598;DHT22;3840;59.32098800;18.06423600;2023-07-20T01:45:21;13.20;99.90
7598;DHT22;3840;59.32098800;18.06423600;2023-07-20T01:47:46;13.20;99.90
7598;DHT22;3840;59.32098800;18.06423600;2023-07-20T01:50:12;13.20;99.90
7598;DHT22;3840;59.32098800;18.06423600;2023-07-20T01:52:38;13.20;99.90
7598;DHT22;3840;59.32098800;18.06423600;2023-07-20T01:55:04;13.20;99.90
7598;DHT22;3840;59.32098800;18.06423600;2023-07-20T01:57:30;13.20;99.90
7598;DHT22;3840;59.32098800;18.06423600;2023-07-20T01:59:55;13.10;99.90
7598;DHT22;3840;59.32098800;18.06423600;2023-07-20T02:02:25;13.10;99.90
7598;DHT22;3840;59.32098800;18.06423600;2023-07-20T02:04:51;13.10;99.90
7598;DHT22;3840;59.32098800;18.06423600;2023-07-20T02:07:17;13.10;99.90
7598;DHT22;3840;59.32098800;18.06423600;2023-07-20T02:09:42;13.10;99.90
7598;DHT22;3840;59.32098800;18.06423600;2023-07-20T02:12:08;13.00;99.90
7598;DHT22;3840;59.32098800;18.06423600;2023-07-20T02:14:34;13.00;99.90
7598;DHT22;3840;59.32098800;18.06423600;2023-07-20T02:17:00;13.00;99.90
7598;DHT22;3840;59.32098800;18.06423600;2023-07-20T02:19:27;13.00;99.90
7598;DHT22;3840;59.32098800;18.06423600;2023-07-20T02:21:53;13.00;99.90
7598;DHT22;3840;59.32098800;18.06423600;2023-07-20T02:24:19;13.00;99.90
7598;DHT22;3840;59.32098800;18.06423600;2023-07-20T02:26:44;13.00;99.90
7598;DHT22;3840;59.32098800;18.06423600;2023-07-20T02:29:10;12.60;99.90
7598;DHT22;3840;59.32098800;18.06423600;2023-07-20T02:31:37;13.00;99.90
7598;DHT22;3840;59.32098800;18.06423600;2023-07-20T02:34:05;13.00;99.90
7598;DHT22;3840;59.32098800;18.06423600;2023-07-20T02:36:31;13.00;99.90
7598;DHT22;3840;59.32098800;18.06423600;2023-07-20T02:38:58;13.00;99.90
7598;DHT22;3840;59.32098800;18.06423600;2023-07-20T02:41:24;13.00;99.90
7598;DHT22;3840;59.32098800;18.06423600;2023-07-20T02:43:50;13.10;99.90
7598;DHT22;3840;59.32098800;18.06423600;2023-07-20T02:46:15;13.30;99.90
7598;DHT22;3840;59.32098800;18.06423600;2023-07-20T02:48:41;13.50;99.90
7598;DHT22;3840;59.32098800;18.06423600;2023-07-20T02:51:07;13.50;99.90
7598;DHT22;3840;59.32098800;18.06423600;2023-07-20T02:53:33;13.60;99.90
7598;DHT22;3840;59.32098800;18.06423600;2023-07-20T02:55:59;13.80;99.90
7598;DHT22;3840;59.32098800;18.06423600;2023-07-20T02:58:24;13.70;99.90
7598;DHT22;3840;59.32098800;18.06423600;2023-07-20T03:00:50;14.00;99.90
7598;DHT22;3840;59.32098800;18.06423600;2023-07-20T03:03:16;14.70;99.90
7598;DHT22;3840;59.32098800;18.06423600;2023-07-20T03:05:42;15.10;99.90
7598;DHT22;3840;59.32098800;18.06423600;2023-07-20T03:08:08;15.30;99.90
7598;DHT22;3840;59.32098800;18.06423600;2023-07-20T03:10:39;15.80;99.90
7598;DHT22;3840;59.32098800;18.06423600;2023-07-20T03:13:05;16.20;99.90
7598;DHT22;3840;59.32098800;18.06423600;2023-07-20T03:15:30;16.60;99.90
7598;DHT22;3840;59.32098800;18.06423600;2023-07-20T03:17:56;17.00;99.90
7598;DHT22;3840;59.32098800;18.06423600;2023-07-20T03:20:24;17.30;99.90
7598;DHT22;3840;59.32098800;18.06423600;2023-07-20T03:22:49;17.80;99.90
7598;DHT22;3840;59.32098800;18.06423600;2023-07-20T03:25:15;17.90;99.90
7598;DHT22;3840;59.32098800;18.06423600;2023-07-20T03:27:41;18.00;99.90
7598;DHT22;3840;59.32098800;18.06423600;2023-07-20T03:30:07;18.20;99.90
7598;DHT22;3840;59.32098800;18.06423600;2023-07-20T03:32:35;18.70;99.90
7598;DHT22;3840;59.32098800;18.06423600;2023-07-20T03:35:01;18.80;99.90
7598;DHT22;3840;59.32098800;18.06423600;2023-07-20T03:37:26;18.90;99.90
7598;DHT22;3840;59.32098800;18.06423600;2023-07-20T03:39:52;19.30;99.90
7598;DHT22;3840;59.32098800;18.06423600;2023-07-20T03:42:18;19.40;99.90
7598;DHT22;3840;59.32098800;18.06423600;2023-07-20T03:44:44;19.20;99.90
7598;DHT22;3840;59.32098800;18.06423600;2023-07-20T03:47:09;19.40;99.90
7598;DHT22;3840;59.32098800;18.06423600;2023-07-20T03:49:35;19.70;99.90
7598;DHT22;3840;59.32098800;18.06423600;2023-07-20T03:52:01;19.70;99.90
7598;DHT22;3840;59.32098800;18.06423600;2023-07-20T03:54:29;19.90;99.90
7598;DHT22;3840;59.32098800;18.06423600;2023-07-20T03:56:54;20.00;99.90
7598;DHT22;3840;59.32098800;18.06423600;2023-07-20T03:59:20;19.80;99.90
7598;DHT22;3840;59.32098800;18.06423600;2023-07-20T04:01:46;20.00;99.90
7598;DHT22;3840;59.32098800;18.06423600;2023-07-20T04:04:13;20.00;99.90
7598;DHT22;3840;59.32098800;18.06423600;2023-07-20T04:06:39;20.10;99.90
7598;DHT22;3840;59.32098800;18.06423600;2023-07-20T04:09:04;20.40;99.90
7598;DHT22;3840;59.32098800;18.06423600;2023-07-20T04:11:30;20.60;99.90
7598;DHT22;3840;59.32098800;18.06423600;2023-07-20T04:13:56;20.50;99.90
7598;DHT22;3840;59.32098800;18.06423600;2023-07-20T04:16:22;20.70;99.90
7598;DHT22;3840;59.32098800;18.06423600;2023-07-20T04:18:48;20.80;99.90
7598;DHT22;3840;59.32098800;18.06423600;2023-07-20T04:21:13;20.70;99.90
7598;DHT22;3840;59.32098800;18.06423600;2023-07-20T04:23:40;20.80;99.90
7598;DHT22;3840;59.32098800;18.06423600;2023-07-20T04:26:06;20.10;99.90
7598;DHT22;3840;59.32098800;18.06423600;2023-07-20T04:28:32;20.70;99.90
7598;DHT22;3840;59.32098800;18.06423600;2023-07-20T04:31:13;20.40;99.90
7598;DHT22;3840;59.32098800;18.06423600;2023-07-20T04:33:39;20.60;99.90
7598;DHT22;3840;59.32098800;18.06423600;2023-07-20T04:36:05;20.90;99.90
7598;DHT22;3840;59.32098800;18.06423600;2023-07-20T04:38:31;21.30;99.90
7598;DHT22;3840;59.32098800;18.06423600;2023-07-20T04:40:57;21.20;99.90
7598;DHT22;3840;59.32098800;18.06423600;2023-07-20T04:43:22;21.60;99.90
7598;DHT22;3840;59.32098800;18.06423600;2023-07-20T04:45:48;21.40;99.90
7598;DHT22;3840;59.32098800;18.06423600;2023-07-20T04:48:15;21.20;99.90
7598;DHT22;3840;59.32098800;18.06423600;2023-07-20T04:50:42;21.00;99.90
7598;DHT22;3840;59.32098800;18.06423600;2023-07-20T04:53:09;20.20;99.90
7598;DHT22;3840;59.32098800;18.06423600;2023-07-20T04:55:38;20.30;99.90
7598;DHT22;3840;59.32098800;18.06423600;2023-07-20T04:58:05;20.30;99.90
7598;DHT22;3840;59.32098800;18.06423600;2023-07-20T05:00:34;20.40;99.90
7598;DHT22;3840;59.32098800;18.06423600;2023-07-20T05:03:00;20.40;99.90
7598;DHT22;3840;59.32098800;18.06423600;2023-07-20T05:05:26;19.00;99.90
7598;DHT22;3840;59.32098800;18.06423600;2023-07-20T05:07:52;17.70;99.90
7598;DHT22;3840;59.32098800;18.06423600;2023-07-20T05:10:18;17.10;99.90
7598;DHT22;3840;59.32098800;18.06423600;2023-07-20T05:12:44;16.70;99.90
7598;DHT22;3840;59.32098800;18.06423600;2023-07-20T05:15:10;16.30;99.90
7598;DHT22;3840;59.32098800;18.06423600;2023-07-20T05:17:35;16.00;99.90
7598;DHT22;3840;59.32098800;18.06423600;2023-07-20T05:20:01;16.00;99.90
7598;DHT22;3840;59.32098800;18.06423600;2023-07-20T05:22:27;15.90;99.90
7598;DHT22;3840;59.32098800;18.06423600;2023-07-20T05:24:52;16.00;99.90
7598;DHT22;3840;59.32098800;18.06423600;2023-07-20T05:27:18;16.10;99.90
7598;DHT22;3840;59.32098800;18.06423600;2023-07-20T05:29:47;16.10;99.90
7598;DHT22;3840;59.32098800;18.06423600;2023-07-20T05:32:13;15.90;99.90
7598;DHT22;3840;59.32098800;18.06423600;2023-07-20T05:34:40;15.60;99.90
7598;DHT22;3840;59.32098800;18.06423600;2023-07-20T05:37:05;16.00;99.90
7598;DHT22;3840;59.32098800;18.06423600;2023-07-20T05:39:34;16.00;99.90
7598;DHT22;3840;59.32098800;18.06423600;2023-07-20T05:42:00;16.10;99.90
7598;DHT22;3840;59.32098800;18.06423600;2023-07-20T05:44:26;16.00;99.90
7598;DHT22;3840;59.32098800;18.06423600;2023-07-20T05:46:51;16.00;99.90
7598;DHT22;3840;59.32098800;18.06423600;2023-07-20T05:49:17;16.00;99.90
7598;DHT22;3840;59.32098800;18.06423600;2023-07-20T05:51:43;16.10;99.90
7598;DHT22;3840;59.32098800;18.06423600;2023-07-20T05:54:08;16.10;99.90
7598;DHT22;3840;59.32098800;18.06423600;2023-07-20T05:56:34;16.10;99.90
7598;DHT22;3840;59.32098800;18.06423600;2023-07-20T05:58:59;16.10;99.90
7598;DHT22;3840;59.32098800;18.06423600;2023-07-20T06:01:25;16.10;99.90
7598;DHT22;3840;59.32098800;18.06423600;2023-07-20T06:03:53;16.00;99.90
7598;DHT22;3840;59.32098800;18.06423600;2023-07-20T06:06:19;16.00;99.90
7598;DHT22;3840;59.32098800;18.06423600;2023-07-20T06:08:45;16.00;99.90
7598;DHT22;3840;59.32098800;18.06423600;2023-07-20T06:11:11;16.10;99.90
7598;DHT22;3840;59.32098800;18.06423600;2023-07-20T06:13:36;16.20;99.90
7598;DHT22;3840;59.32098800;18.06423600;2023-07-20T06:16:03;16.20;99.90
7598;DHT22;3840;59.32098800;18.06423600;2023-07-20T06:18:29;16.20;99.90
7598;DHT22;3840;59.32098800;18.06423600;2023-07-20T06:20:56;16.30;99.90
7598;DHT22;3840;59.32098800;18.06423600;2023-07-20T06:23:22;16.10;99.90
7598;DHT22;3840;59.32098800;18.06423600;2023-07-20T06:25:48;16.10;99.90
7598;DHT22;3840;59.32098800;18.06423600;2023-07-20T06:28:14;16.20;99.90
7598;DHT22;3840;59.32098800;18.06423600;2023-07-20T06:30:40;16.30;99.90
7598;DHT22;3840;59.32098800;18.06423600;2023-07-20T06:33:05;16.20;99.90
7598;DHT22;3840;59.32098800;18.06423600;2023-07-20T06:35:32;16.40;99.90
7598;DHT22;3840;59.32098800;18.06423600;2023-07-20T06:37:58;16.50;99.90
7598;DHT22;3840;59.32098800;18.06423600;2023-07-20T06:40:26;16.40;99.90
7598;DHT22;3840;59.32098800;18.06423600;2023-07-20T06:42:51;16.20;99.90
7598;DHT22;3840;59.32098800;18.06423600;2023-07-20T06:45:17;15.80;99.90
7598;DHT22;3840;59.32098800;18.06423600;2023-07-20T06:47:43;16.30;99.90
7598;DHT22;3840;59.32098800;18.06423600;2023-07-20T06:50:10;16.40;99.90
7598;DHT22;3840;59.32098800;18.06423600;2023-07-20T06:52:36;16.40;99.90
7598;DHT22;3840;59.32098800;18.06423600;2023-07-20T06:55:02;16.40;99.90
7598;DHT22;3840;59.32098800;18.06423600;2023-07-20T06:57:28;16.60;99.90
7598;DHT22;3840;59.32098800;18.06423600;2023-07-20T06:59:53;16.60;99.90
7598;DHT22;3840;59.32098800;18.06423600;2023-07-20T07:02:19;16.70;99.90
7598;DHT22;3840;59.32098800;18.06423600;2023-07-20T07:04:45;16.70;99.90
7598;DHT22;3840;59.32098800;18.06423600;2023-07-20T07:07:14;16.80;99.90
7598;DHT22;3840;59.32098800;18.06423600;2023-07-20T07:09:40;16.70;99.90
7598;DHT22;3840;59.32098800;18.06423600;2023-07-20T07:12:06;16.80;99.90
7598;DHT22;3840;59.32098800;18.06423600;2023-07-20T07:14:32;16.80;99.90
7598;DHT22;3840;59.32098800;18.06423600;2023-07-20T07:16:58;16.80;99.90
7598;DHT22;3840;59.32098800;18.06423600;2023-07-20T07:19:24;16.80;99.90
7598;DHT22;3840;59.32098800;18.06423600;2023-07-20T07:21:49;16.80;99.90
7598;DHT22;3840;59.32098800;18.06423600;2023-07-20T07:24:16;17.00;99.90
7598;DHT22;3840;59.32098800;18.06423600;2023-07-20T07:26:42;17.00;99.90
7598;DHT22;3840;59.32098800;18.06423600;2023-07-20T07:29:07;17.10;99.90
7598;DHT22;3840;59.32098800;18.06423600;2023-07-20T07:31:34;17.00;99.90
7598;DHT22;3840;59.32098800;18.06423600;2023-07-20T07:34:01;17.10;99.90
7598;DHT22;3840;59.32098800;18.06423600;2023-07-20T07:36:27;17.00;99.90
7598;DHT22;3840;59.32098800;18.06423600;2023-07-20T07:38:53;17.10;99.90
7598;DHT22;3840;59.32098800;18.06423600;2023-07-20T07:41:19;17.10;99.90
7598;DHT22;3840;59.32098800;18.06423600;2023-07-20T07:43:46;17.20;99.90
7598;DHT22;3840;59.32098800;18.06423600;2023-07-20T07:46:11;17.30;99.90
7598;DHT22;3840;59.32098800;18.06423600;2023-07-20T07:48:37;17.30;99.90
7598;DHT22;3840;59.32098800;18.06423600;2023-07-20T07:51:03;17.50;99.90
7598;DHT22;3840;59.32098800;18.06423600;2023-07-20T07:53:29;17.40;99.90
7598;DHT22;3840;59.32098800;18.06423600;2023-07-20T07:55:54;17.50;99.90
7598;DHT22;3840;59.32098800;18.06423600;2023-07-20T07:58:20;17.30;99.90
7598;DHT22;3840;59.32098800;18.06423600;2023-07-20T08:00:46;17.40;99.90
7598;DHT22;3840;59.32098800;18.06423600;2023-07-20T08:03:13;17.40;99.90
7598;DHT22;3840;59.32098800;18.06423600;2023-07-20T08:05:39;17.50;99.90
7598;DHT22;3840;59.32098800;18.06423600;2023-07-20T08:08:05;17.50;99.90
7598;DHT22;3840;59.32098800;18.06423600;2023-07-20T08:10:31;17.70;99.90
7598;DHT22;3840;59.32098800;18.06423600;2023-07-20T08:12:57;17.70;99.90
7598;DHT22;3840;59.32098800;18.06423600;2023-07-20T08:15:22;17.80;99.90
7598;DHT22;3840;59.32098800;18.06423600;2023-07-20T08:17:48;18.00;99.90
7598;DHT22;3840;59.32098800;18.06423600;2023-07-20T08:20:17;18.00;99.90
7598;DHT22;3840;59.32098800;18.06423600;2023-07-20T08:22:43;18.00;99.90
7598;DHT22;3840;59.32098800;18.06423600;2023-07-20T08:25:09;18.00;99.90
7598;DHT22;3840;59.32098800;18.06423600;2023-07-20T08:27:36;18.00;99.90
7598;DHT22;3840;59.32098800;18.06423600;2023-07-20T08:30:02;18.20;99.90
7598;DHT22;3840;59.32098800;18.06423600;2023-07-20T08:32:30;18.30;99.90
7598;DHT22;3840;59.32098800;18.06423600;2023-07-20T08:34:55;18.10;99.90
7598;DHT22;3840;59.32098800;18.06423600;2023-07-20T08:37:21;18.00;99.90
7598;DHT22;3840;59.32098800;18.06423600;2023-07-20T08:39:47;17.90;99.90
7598;DHT22;3840;59.32098800;18.06423600;2023-07-20T08:42:14;17.80;99.90
7598;DHT22;3840;59.32098800;18.06423600;2023-07-20T08:44:42;17.70;99.90
7598;DHT22;3840;59.32098800;18.06423600;2023-07-20T08:47:10;17.70;99.90
7598;DHT22;3840;59.32098800;18.06423600;2023-07-20T08:49:39;17.80;99.90
7598;DHT22;3840;59.32098800;18.06423600;2023-07-20T08:52:05;18.00;99.90
7598;DHT22;3840;59.32098800;18.06423600;2023-07-20T08:54:32;17.90;99.90
7598;DHT22;3840;59.32098800;18.06423600;2023-07-20T08:57:02;17.80;99.90
7598;DHT22;3840;59.32098800;18.06423600;2023-07-20T08:59:29;17.80;99.90
7598;DHT22;3840;59.32098800;18.06423600;2023-07-20T09:01:57;17.90;99.90
7598;DHT22;3840;59.32098800;18.06423600;2023-07-20T09:04:23;18.00;99.90
7598;DHT22;3840;59.32098800;18.06423600;2023-07-20T09:06:50;18.20;99.90
7598;DHT22;3840;59.32098800;18.06423600;2023-07-20T09:09:16;18.40;99.90
7598;DHT22;3840;59.32098800;18.06423600;2023-07-20T09:11:42;18.40;99.90
7598;DHT22;3840;59.32098800;18.06423600;2023-07-20T09:14:09;18.50;99.90
7598;DHT22;3840;59.32098800;18.06423600;2023-07-20T09:17:05;18.80;99.90
7598;DHT22;3840;59.32098800;18.06423600;2023-07-20T09:19:31;18.90;99.90
7598;DHT22;3840;59.32098800;18.06423600;2023-07-20T09:21:56;18.80;99.90
7598;DHT22;3840;59.32098800;18.06423600;2023-07-20T09:24:22;18.70;99.90
7598;DHT22;3840;59.32098800;18.06423600;2023-07-20T09:26:48;18.90;99.90
7598;DHT22;3840;59.32098800;18.06423600;2023-07-20T09:29:14;19.00;99.90
7598;DHT22;3840;59.32098800;18.06423600;2023-07-20T09:31:43;19.00;99.90
7598;DHT22;3840;59.32098800;18.06423600;2023-07-20T09:34:23;19.10;99.90
7598;DHT22;3840;59.32098800;18.06423600;2023-07-20T09:36:49;19.10;99.90
7598;DHT22;3840;59.32098800;18.06423600;2023-07-20T09:39:14;19.20;99.90
7598;DHT22;3840;59.32098800;18.06423600;2023-07-20T09:41:41;19.40;99.90
7598;DHT22;3840;59.32098800;18.06423600;2023-07-20T09:44:07;19.50;99.90
7598;DHT22;3840;59.32098800;18.06423600;2023-07-20T09:46:48;19.60;99.90
7598;DHT22;3840;59.32098800;18.06423600;2023-07-20T09:49:14;19.60;99.90
7598;DHT22;3840;59.32098800;18.06423600;2023-07-20T09:51:42;19.50;99.90
7598;DHT22;3840;59.32098800;18.06423600;2023-07-20T09:54:08;19.40;99.90
7598;DHT22;3840;59.32098800;18.06423600;2023-07-20T09:56:36;19.50;99.90
7598;DHT22;3840;59.32098800;18.06423600;2023-07-20T09:59:05;19.60;99.90
7598;DHT22;3840;59.32098800;18.06423600;2023-07-20T10:01:33;19.60;99.90
7598;DHT22;3840;59.32098800;18.06423600;2023-07-20T10:04:03;19.80;99.90
7598;DHT22;3840;59.32098800;18.06423600;2023-07-20T10:06:32;19.90;99.90
7598;DHT22;3840;59.32098800;18.06423600;2023-07-20T10:09:01;20.10;99.90
7598;DHT22;3840;59.32098800;18.06423600;2023-07-20T10:11:35;20.10;99.90
7598;DHT22;3840;59.32098800;18.06423600;2023-07-20T10:14:04;20.30;99.90
7598;DHT22;3840;59.32098800;18.06423600;2023-07-20T10:16:39;20.20;99.90
7598;DHT22;3840;59.32098800;18.06423600;2023-07-20T10:19:13;20.10;99.90
7598;DHT22;3840;59.32098800;18.06423600;2023-07-20T10:21:47;19.90;99.90
7598;DHT22;3840;59.32098800;18.06423600;2023-07-20T10:24:14;19.70;99.90
7598;DHT22;3840;59.32098800;18.06423600;2023-07-20T10:26:40;19.60;99.90
7598;DHT22;3840;59.32098800;18.06423600;2023-07-20T10:29:06;19.80;99.90
7598;DHT22;3840;59.32098800;18.06423600;2023-07-20T10:31:33;19.70;99.90
7598;DHT22;3840;59.32098800;18.06423600;2023-07-20T10:33:59;20.00;99.90
7598;DHT22;3840;59.32098800;18.06423600;2023-07-20T10:36:26;20.20;99.90
7598;DHT22;3840;59.32098800;18.06423600;2023-07-20T10:38:54;20.10;99.90
7598;DHT22;3840;59.32098800;18.06423600;2023-07-20T10:41:23;20.20;99.90
7598;DHT22;3840;59.32098800;18.06423600;2023-07-20T10:44:01;20.20;99.90
7598;DHT22;3840;59.32098800;18.06423600;2023-07-20T10:49:06;19.80;99.90
7598;DHT22;3840;59.32098800;18.06423600;2023-07-20T10:51:43;19.90;99.90
7598;DHT22;3840;59.32098800;18.06423600;2023-07-20T10:56:41;19.10;99.90
7598;DHT22;3840;59.32098800;18.06423600;2023-07-20T10:59:36;18.90;99.90
7598;DHT22;3840;59.32098800;18.06423600;2023-07-20T11:02:07;18.50;99.90
7598;DHT22;3840;59.32098800;18.06423600;2023-07-20T11:04:41;18.60;99.90
7598;DHT22;3840;59.32098800;18.06423600;2023-07-20T11:07:07;18.60;99.90
7598;DHT22;3840;59.32098800;18.06423600;2023-07-20T11:09:38;18.60;99.90
7598;DHT22;3840;59.32098800;18.06423600;2023-07-20T11:12:10;18.70;99.90
7598;DHT22;3840;59.32098800;18.06423600;2023-07-20T11:14:43;18.60;99.90
7598;DHT22;3840;59.32098800;18.06423600;2023-07-20T11:17:18;18.60;99.90
7598;DHT22;3840;59.32098800;18.06423600;2023-07-20T11:19:48;18.60;99.90
7598;DHT22;3840;59.32098800;18.06423600;2023-07-20T11:22:17;18.60;99.90
7598;DHT22;3840;59.32098800;18.06423600;2023-07-20T11:24:43;18.50;99.90
7598;DHT22;3840;59.32098800;18.06423600;2023-07-20T11:27:09;18.50;99.90
7598;DHT22;3840;59.32098800;18.06423600;2023-07-20T11:29:37;18.40;99.90
7598;DHT22;3840;59.32098800;18.06423600;2023-07-20T11:32:03;18.40;99.90
7598;DHT22;3840;59.32098800;18.06423600;2023-07-20T11:34:30;18.40;99.90
7598;DHT22;3840;59.32098800;18.06423600;2023-07-20T11:36:57;18.10;99.90
7598;DHT22;3840;59.32098800;18.06423600;2023-07-20T11:39:23;18.10;99.90
7598;DHT22;3840;59.32098800;18.06423600;2023-07-20T11:41:52;18.20;99.90
7598;DHT22;3840;59.32098800;18.06423600;2023-07-20T11:44:20;18.30;99.90
7598;DHT22;3840;59.32098800;18.06423600;2023-07-20T11:46:46;18.50;99.90
7598;DHT22;3840;59.32098800;18.06423600;2023-07-20T11:49:12;18.60;99.90
7598;DHT22;3840;59.32098800;18.06423600;2023-07-20T11:51:40;18.80;99.90
7598;DHT22;3840;59.32098800;18.06423600;2023-07-20T11:54:07;18.90;99.90
7598;DHT22;3840;59.32098800;18.06423600;2023-07-20T11:56:33;19.00;99.90
7598;DHT22;3840;59.32098800;18.06423600;2023-07-20T11:58:59;19.10;99.90
7598;DHT22;3840;59.32098800;18.06423600;2023-07-20T12:01:27;19.10;99.90
7598;DHT22;3840;59.32098800;18.06423600;2023-07-20T12:04:01;19.30;99.90
7598;DHT22;3840;59.32098800;18.06423600;2023-07-20T12:06:30;19.60;99.90
7598;DHT22;3840;59.32098800;18.06423600;2023-07-20T12:08:57;19.70;99.90
7598;DHT22;3840;59.32098800;18.06423600;2023-07-20T12:11:36;19.80;99.90
7598;DHT22;3840;59.32098800;18.06423600;2023-07-20T12:14:03;19.80;99.90
7598;DHT22;3840;59.32098800;18.06423600;2023-07-20T12:16:29;19.80;99.90
7598;DHT22;3840;59.32098800;18.06423600;2023-07-20T12:19:12;19.80;99.90
7598;DHT22;3840;59.32098800;18.06423600;2023-07-20T12:21:40;19.90;99.90
7598;DHT22;3840;59.32098800;18.06423600;2023-07-20T12:24:07;19.90;99.90
7598;DHT22;3840;59.32098800;18.06423600;2023-07-20T12:26:34;19.80;99.90
7598;DHT22;3840;59.32098800;18.06423600;2023-07-20T12:29:00;20.10;99.90
7598;DHT22;3840;59.32098800;18.06423600;2023-07-20T12:31:27;20.10;99.90
7598;DHT22;3840;59.32098800;18.06423600;2023-07-20T12:33:56;20.30;99.90
7598;DHT22;3840;59.32098800;18.06423600;2023-07-20T12:36:22;20.40;99.90
7598;DHT22;3840;59.32098800;18.06423600;2023-07-20T12:38:47;20.70;99.90
7598;DHT22;3840;59.32098800;18.06423600;2023-07-20T12:41:14;20.60;99.90
7598;DHT22;3840;59.32098800;18.06423600;2023-07-20T12:43:41;20.60;99.90
7598;DHT22;3840;59.32098800;18.06423600;2023-07-20T12:46:07;20.70;99.90
7598;DHT22;3840;59.32098800;18.06423600;2023-07-20T12:48:33;20.70;99.90
7598;DHT22;3840;59.32098800;18.06423600;2023-07-20T12:50:59;20.70;99.90
7598;DHT22;3840;59.32098800;18.06423600;2023-07-20T12:53:24;20.70;99.90
7598;DHT22;3840;59.32098800;18.06423600;2023-07-20T12:55:50;20.50;99.90
7598;DHT22;3840;59.32098800;18.06423600;2023-07-20T12:58:16;20.40;99.90
7598;DHT22;3840;59.32098800;18.06423600;2023-07-20T13:00:41;20.40;99.90
7598;DHT22;3840;59.32098800;18.06423600;2023-07-20T13:03:08;20.60;99.90
7598;DHT22;3840;59.32098800;18.06423600;2023-07-20T13:05:35;20.80;99.90
7598;DHT22;3840;59.32098800;18.06423600;2023-07-20T13:08:01;20.60;99.90
7598;DHT22;3840;59.32098800;18.06423600;2023-07-20T13:10:27;20.70;99.90
7598;DHT22;3840;59.32098800;18.06423600;2023-07-20T13:12:53;20.50;99.90
7598;DHT22;3840;59.32098800;18.06423600;2023-07-20T13:15:19;20.40;99.90
7598;DHT22;3840;59.32098800;18.06423600;2023-07-20T13:17:45;20.50;99.90
7598;DHT22;3840;59.32098800;18.06423600;2023-07-20T13:20:11;20.50;99.90
7598;DHT22;3840;59.32098800;18.06423600;2023-07-20T13:22:38;20.70;99.90
7598;DHT22;3840;59.32098800;18.06423600;2023-07-20T13:25:05;20.70;99.90
7598;DHT22;3840;59.32098800;18.06423600;2023-07-20T13:27:31;20.70;99.90
7598;DHT22;3840;59.32098800;18.06423600;2023-07-20T13:29:58;20.40;99.90
7598;DHT22;3840;59.32098800;18.06423600;2023-07-20T13:32:26;20.30;99.90
7598;DHT22;3840;59.32098800;18.06423600;2023-07-20T13:34:52;20.40;99.90
7598;DHT22;3840;59.32098800;18.06423600;2023-07-20T13:37:18;20.30;99.90
7598;DHT22;3840;59.32098800;18.06423600;2023-07-20T13:39:44;20.30;99.90
7598;DHT22;3840;59.32098800;18.06423600;2023-07-20T13:42:10;20.10;99.90
7598;DHT22;3840;59.32098800;18.06423600;2023-07-20T13:44:38;20.10;99.90